Time;durP1;ratioP1;P1;durP2;ratioP2;P2;SDS_P1;SDS_P2;PMS_P1;PMS_P2;Temp;Humidity;BMP_temperature;BMP_pressure;BME280_temperature;BME280_humidity;BME280_pressure;Samples;Min_cycle;Max_cycle;Signal;HPM_P1;HPM_P2
2023/05/25 00:02:14;;;;;;;0.30;0.30;;;;;;;16.10;82.13;99742.03;5041497;28;20040;-77
2023/05/25 00:04:40;;;;;;;0.30;0.30;;;;;;;16.10;82.32;99742.03;5040833;28;20054;-69
2023/05/25 00:07:07;;;;;;;0.20;0.20;;;;;;;16.09;82.30;99740.41;5042188;28;20060;-69
2023/05/25 00:09:35;;;;;;;0.30;0.30;;;;;;;16.07;82.15;99739.91;5006761;28;20899;-69
2023/05/25 00:12:02;;;;;;;0.30;0.30;;;;;;;16.07;82.33;99731.63;5044224;28;20264;-69
2023/05/25 00:14:29;;;;;;;0.22;0.22;;;;;;;16.10;82.21;99740.09;5011013;28;20140;-69
2023/05/25 00:16:55;;;;;;;;;;;;;;;16.09;82.03;99738.47;5029471;28;20098;-70
2023/05/25 00:19:22;;;;;;;0.30;0.30;;;;;;;16.08;82.06;99733.25;5028685;28;19924;-69
2023/05/25 00:21:48;;;;;;;0.20;0.20;;;;;;;16.08;82.15;99733.25;5005652;28;20057;-75
2023/05/25 00:24:15;;;;;;;0.30;0.30;;;;;;;16.10;82.23;99744.81;5042072;28;20045;-76
2023/05/25 00:26:42;;;;;;;0.30;0.30;;;;;;;16.07;82.00;99737.97;5026520;28;20045;-75
2023/05/25 00:29:11;;;;;;;0.30;0.30;;;;;;;16.04;82.19;99732.25;5047988;28;20504;-75
2023/05/25 00:31:38;;;;;;;0.30;0.30;;;;;;;16.07;82.24;99731.63;5027509;28;20048;-76
2023/05/25 00:34:04;;;;;;;0.30;0.30;;;;;;;16.09;82.26;99723.88;5027309;28;20069;-76
2023/05/25 00:36:30;;;;;;;0.73;0.50;;;;;;;16.10;82.61;99722.75;5028008;28;20049;-76
2023/05/25 00:38:57;;;;;;;0.35;0.35;;;;;;;16.09;82.92;99719.16;5045980;28;20061;-76
2023/05/25 00:41:25;;;;;;;0.60;0.40;;;;;;;16.06;83.49;99717.03;5044758;28;20048;-75
2023/05/25 00:43:53;;;;;;;0.50;0.40;;;;;;;16.02;83.85;99722.34;5026111;28;20055;-76
2023/05/25 00:46:21;;;;;;;0.22;0.22;;;;;;;15.97;84.04;99714.22;5046150;28;20063;-75
2023/05/25 00:48:47;;;;;;;;;;;;;;;15.91;83.87;99712.69;5030191;28;20453;-75
2023/05/25 00:51:14;;;;;;;0.30;0.30;;;;;;;15.84;84.20;99710.38;5028364;28;20354;-76
2023/05/25 00:53:41;;;;;;;0.35;0.35;;;;;;;15.78;84.51;99713.56;5039221;28;20038;-76
2023/05/25 00:56:13;;;;;;;0.30;0.30;;;;;;;15.72;84.65;99710.91;5032061;28;20037;-76
2023/05/25 00:58:41;;;;;;;0.30;0.30;;;;;;;15.69;84.99;99703.25;5046208;28;20546;-75
2023/05/25 01:01:13;;;;;;;0.40;0.40;;;;;;;15.66;85.27;99698.38;5010235;28;20045;-76
2023/05/25 01:03:44;;;;;;;0.30;0.30;;;;;;;15.70;85.13;99693.88;5030321;28;20041;-76
2023/05/25 01:06:13;;;;;;;0.30;0.30;;;;;;;15.62;84.92;99680.84;5011419;28;20045;-75
2023/05/25 01:08:43;;;;;;;0.30;0.30;;;;;;;15.70;85.29;99693.06;5029739;28;20049;-70
2023/05/25 01:11:11;;;;;;;0.30;0.30;;;;;;;15.64;85.18;99683.28;5044654;28;20091;-70
2023/05/25 01:13:37;;;;;;;0.35;0.35;;;;;;;15.69;84.64;99683.19;5027288;28;20051;-69
2023/05/25 01:16:05;;;;;;;0.30;0.30;;;;;;;15.68;84.62;99671.31;5045259;28;20048;-69
2023/05/25 01:18:33;;;;;;;0.30;0.30;;;;;;;15.67;84.84;99675.22;5046448;28;20462;-69
2023/05/25 01:21:16;;;;;;;0.22;0.22;;;;;;;15.64;84.46;99670.31;5029549;28;20424;-70
2023/05/25 01:23:49;;;;;;;0.30;0.30;;;;;;;15.68;84.38;99673.25;5046219;28;20045;-68
2023/05/25 01:26:19;;;;;;;0.30;0.30;;;;;;;15.68;84.41;99676.00;5027000;28;20044;-68
2023/05/25 01:28:50;;;;;;;0.30;0.30;;;;;;;15.73;84.24;99681.41;5011121;28;20045;-69
2023/05/25 01:31:21;;;;;;;0.30;0.30;;;;;;;15.80;83.82;99687.28;5045126;28;20045;-69
2023/05/25 01:33:50;;;;;;;0.30;0.30;;;;;;;15.82;83.62;99696.06;5044180;28;20063;-69
2023/05/25 01:36:17;;;;;;;0.30;0.30;;;;;;;15.82;83.85;99689.75;5026536;28;20047;-69
2023/05/25 01:38:44;;;;;;;1.23;0.32;;;;;;;15.80;83.53;99692.00;5011323;28;20041;-70
2023/05/25 01:41:10;;;;;;;0.30;0.30;;;;;;;15.78;83.31;99692.31;5027270;28;20045;-69
2023/05/25 01:43:36;;;;;;;0.30;0.30;;;;;;;15.81;83.26;99688.13;5045288;28;20045;-69
2023/05/25 01:46:10;;;;;;;0.30;0.30;;;;;;;15.82;83.18;99693.31;5009547;28;20060;-70
2023/05/25 01:48:45;;;;;;;0.35;0.35;;;;;;;15.88;83.33;99692.06;5009848;28;20139;-69
2023/05/25 01:51:21;;;;;;;0.75;0.40;;;;;;;15.97;82.33;99692.16;5045371;28;20055;-69
2023/05/25 01:53:52;;;;;;;0.30;0.30;;;;;;;16.01;81.99;99698.66;5009730;28;20052;-70
2023/05/25 01:56:20;;;;;;;0.20;0.20;;;;;;;16.01;82.22;99693.16;5026352;28;20037;-69
2023/05/25 01:58:49;;;;;;;0.30;0.30;;;;;;;16.09;81.89;99710.09;5041822;28;20052;-70
2023/05/25 02:01:17;;;;;;;0.30;0.30;;;;;;;16.15;81.92;99706.06;5026000;28;20144;-69
2023/05/25 02:03:47;;;;;;;0.30;0.30;;;;;;;16.18;81.38;99696.34;5027326;28;20072;-68
2023/05/25 02:06:15;;;;;;;0.30;0.30;;;;;;;16.18;81.60;99697.16;5009516;28;20582;-69
2023/05/25 02:08:45;;;;;;;0.30;0.30;;;;;;;16.24;81.31;99700.59;5044337;28;20500;-70
2023/05/25 02:11:13;;;;;;;0.40;0.40;;;;;;;16.29;80.89;99690.25;5043919;28;20502;-77
2023/05/25 02:13:39;;;;;;;0.32;0.32;;;;;;;16.32;81.35;99699.00;5045848;28;20076;-79
2023/05/25 02:16:06;;;;;;;0.40;0.40;;;;;;;16.41;80.61;99706.22;5043756;28;20051;-76
2023/05/25 02:18:33;;;;;;;0.30;0.30;;;;;;;16.43;80.18;99708.66;5027580;28;20132;-69
2023/05/25 02:20:59;;;;;;;0.30;0.30;;;;;;;16.48;80.10;99714.03;5009642;28;20139;-69
2023/05/25 02:23:25;;;;;;;0.30;0.30;;;;;;;16.49;79.79;99706.59;5045693;28;20044;-69
2023/05/25 02:25:53;;;;;;;0.30;0.30;;;;;;;16.56;79.50;99724.31;5025583;28;20490;-69
2023/05/25 02:28:22;;;;;;;0.30;0.30;;;;;;;16.62;79.09;99715.88;5004769;28;20034;-69
2023/05/25 02:30:48;;;;;;;0.30;0.30;;;;;;;16.66;78.85;99719.63;5035863;28;20147;-70
2023/05/25 02:33:14;;;;;;;0.35;0.35;;;;;;;16.69;78.61;99717.06;5025233;28;20103;-70
2023/05/25 02:35:40;;;;;;;0.32;0.32;;;;;;;16.76;78.40;99719.38;5008981;28;20049;-68
2023/05/25 02:38:07;;;;;;;0.40;0.40;;;;;;;16.83;77.95;99713.38;5044152;28;20136;-69
2023/05/25 02:40:33;;;;;;;0.30;0.30;;;;;;;16.89;77.64;99716.81;5043094;28;20069;-69
2023/05/25 02:43:01;;;;;;;0.30;0.30;;;;;;;16.95;77.31;99718.28;5010801;28;20103;-70
2023/05/25 02:45:27;;;;;;;0.35;0.35;;;;;;;17.01;77.24;99733.59;5025805;28;20299;-69
2023/05/25 02:47:54;;;;;;;0.40;0.40;;;;;;;17.03;77.17;99722.25;5010349;28;20064;-70
2023/05/25 02:50:22;;;;;;;0.30;0.30;;;;;;;17.08;77.05;99719.31;4982132;28;20057;-69
2023/05/25 02:52:51;;;;;;;0.40;0.40;;;;;;;17.14;76.91;99732.66;5026151;28;20056;-70
2023/05/25 02:55:18;;;;;;;0.52;0.40;;;;;;;17.15;77.25;99737.06;5025778;28;20416;-70
2023/05/25 02:57:45;;;;;;;0.40;0.40;;;;;;;17.17;76.86;99738.69;5043209;28;20045;-71
2023/05/25 03:00:23;;;;;;;0.30;0.30;;;;;;;17.13;76.80;99725.53;4995286;28;20139;-70
2023/05/25 03:02:50;;;;;;;0.40;0.40;;;;;;;17.15;77.16;99734.28;5044432;28;20566;-70
2023/05/25 03:05:18;;;;;;;0.30;0.30;;;;;;;17.18;77.16;99738.38;5026860;28;20220;-69
2023/05/25 03:07:44;;;;;;;0.30;0.30;;;;;;;17.20;77.06;99744.38;5021470;28;20152;-70
2023/05/25 03:10:10;;;;;;;0.30;0.30;;;;;;;17.23;77.06;99735.44;5044206;28;20106;-70
2023/05/25 03:12:37;;;;;;;0.30;0.30;;;;;;;17.29;76.99;99738.88;5041703;28;20202;-69
2023/05/25 03:15:03;;;;;;;0.30;0.30;;;;;;;17.34;76.66;99735.97;5025557;28;20131;-70
2023/05/25 03:17:32;;;;;;;0.30;0.30;;;;;;;17.42;76.43;99737.94;5060701;28;20051;-69
2023/05/25 03:19:58;;;;;;;0.40;0.40;;;;;;;17.53;76.00;99737.63;5026454;28;20056;-69
2023/05/25 03:22:26;;;;;;;0.40;0.40;;;;;;;17.66;75.30;99738.63;5040849;28;20055;-69
2023/05/25 03:24:52;;;;;;;0.30;0.30;;;;;;;17.75;74.81;99731.16;5059623;28;20099;-70
2023/05/25 03:27:18;;;;;;;0.30;0.30;;;;;;;17.92;73.93;99741.38;5036558;28;20098;-70
2023/05/25 03:29:48;;;;;;;0.30;0.30;;;;;;;18.04;73.14;99735.25;5043692;28;20055;-69
2023/05/25 03:32:14;;;;;;;0.30;0.30;;;;;;;18.16;73.02;99740.09;5025344;28;20071;-70
2023/05/25 03:34:43;;;;;;;0.35;0.35;;;;;;;18.21;72.59;99739.91;5057317;28;20037;-70
2023/05/25 03:37:12;;;;;;;0.40;0.40;;;;;;;18.28;72.34;99743.00;5042510;28;20044;-71
2023/05/25 03:39:39;;;;;;;0.30;0.30;;;;;;;18.35;72.12;99744.47;5024673;28;20060;-70
2023/05/25 03:42:06;;;;;;;0.30;0.30;;;;;;;18.41;71.46;99734.81;5023939;28;20098;-70
2023/05/25 03:44:32;;;;;;;0.30;0.30;;;;;;;18.47;71.62;99736.28;5042350;28;20502;-70
2023/05/25 03:46:58;;;;;;;0.50;0.40;;;;;;;18.51;71.04;99733.69;5027897;28;20040;-70
2023/05/25 03:49:24;;;;;;;0.30;0.30;;;;;;;18.55;70.85;99735.44;5026585;28;20140;-70
2023/05/25 03:51:52;;;;;;;0.30;0.30;;;;;;;18.62;70.45;99736.91;5043444;28;20052;-70
2023/05/25 03:54:18;;;;;;;0.40;0.40;;;;;;;18.68;70.00;99728.09;5039660;28;20426;-69
2023/05/25 03:56:44;;;;;;;0.30;0.30;;;;;;;18.78;69.85;99723.31;5041387;28;20144;-70
2023/05/25 03:59:11;;;;;;;0.40;0.40;;;;;;;18.83;69.67;99720.38;5042312;28;20049;-69
2023/05/25 04:01:37;;;;;;;0.30;0.30;;;;;;;18.91;69.21;99718.72;5025458;28;20581;-69
2023/05/25 04:04:04;;;;;;;0.40;0.40;;;;;;;18.96;68.99;99715.75;5019165;28;20608;-70
2023/05/25 04:06:30;;;;;;;0.30;0.30;;;;;;;18.99;69.00;99707.63;5022893;28;20118;-70
2023/05/25 04:08:58;;;;;;;0.30;0.30;;;;;;;19.03;68.60;99699.44;5025531;28;20126;-69
2023/05/25 04:11:26;;;;;;;0.30;0.30;;;;;;;19.06;68.56;99698.78;5040884;28;20072;-70
2023/05/25 04:13:53;;;;;;;0.40;0.40;;;;;;;19.07;68.03;99702.34;5008605;28;20463;-70
2023/05/25 04:16:20;;;;;;;0.40;0.40;;;;;;;19.04;67.99;99703.03;5025182;28;20055;-69
2023/05/25 04:18:46;;;;;;;0.40;0.40;;;;;;;19.07;68.03;99710.66;5042052;28;20052;-71
2023/05/25 04:21:13;;;;;;;0.35;0.35;;;;;;;19.09;67.88;99703.66;5016153;28;20104;-71
2023/05/25 04:23:41;;;;;;;0.38;0.38;;;;;;;19.19;67.56;99712.69;5036254;28;20053;-70
2023/05/25 04:26:09;;;;;;;0.40;0.40;;;;;;;19.31;67.16;99709.22;5019955;28;20128;-70
2023/05/25 04:28:39;;;;;;;0.30;0.30;;;;;;;19.44;66.70;99701.78;5040617;28;20505;-70
2023/05/25 04:31:29;;;;;;;0.40;0.40;;;;;;;19.52;66.10;99698.94;4990814;28;20578;-76
2023/05/25 04:34:32;;;;;;;0.30;0.30;;;;;;;19.62;65.70;99699.72;4944273;28;20047;-76
2023/05/25 04:37:20;;;;;;;0.30;0.30;;;;;;;19.62;65.55;99706.06;5020383;28;20053;-77
2023/05/25 04:39:47;;;;;;;0.30;0.30;;;;;;;19.60;65.73;99716.66;5025467;28;20146;-76
2023/05/25 04:42:15;;;;;;;0.30;0.30;;;;;;;19.61;65.60;99717.50;4991364;28;20515;-75
2023/05/25 04:44:42;;;;;;;0.40;0.40;;;;;;;19.73;65.15;99713.97;4988987;28;20045;-70
2023/05/25 04:47:09;;;;;;;0.30;0.30;;;;;;;19.86;64.39;99710.09;5010312;28;20110;-70
2023/05/25 04:49:35;;;;;;;0.30;0.30;;;;;;;20.04;64.16;99713.53;5023025;28;20060;-76
2023/05/25 04:52:02;;;;;;;0.30;0.30;;;;;;;20.19;63.27;99711.28;5037816;28;20090;-76
2023/05/25 04:54:30;;;;;;;0.30;0.30;;;;;;;20.32;62.58;99712.16;5027792;28;20076;-75
2023/05/25 04:56:58;;;;;;;0.30;0.30;;;;;;;20.38;62.25;99719.09;5026467;28;20512;-76
2023/05/25 04:59:26;;;;;;;0.30;0.30;;;;;;;20.39;62.41;99706.84;5047788;28;20098;-76
2023/05/25 05:01:52;;;;;;;0.40;0.40;;;;;;;20.31;62.22;99711.31;5045664;28;20504;-76
2023/05/25 05:04:19;;;;;;;0.30;0.30;;;;;;;20.30;62.59;99708.91;5045327;28;20179;-76
2023/05/25 05:06:47;;;;;;;0.30;0.30;;;;;;;20.33;62.15;99708.22;5009523;28;20111;-76
2023/05/25 05:09:17;;;;;;;0.30;0.30;;;;;;;20.33;61.96;99711.78;5059346;28;20098;-75
2023/05/25 05:11:44;;;;;;;0.30;0.30;;;;;;;20.38;62.43;99702.44;5027807;28;20049;-77
2023/05/25 05:14:12;;;;;;;0.30;0.30;;;;;;;20.38;62.16;99714.38;5026631;28;20167;-76
2023/05/25 05:16:40;;;;;;;;;;;;;;;20.35;62.43;99720.59;5045322;28;20041;-76
2023/05/25 05:19:06;;;;;;;0.32;0.30;;;;;;;20.27;62.64;99716.75;5059229;28;20296;-77
2023/05/25 05:21:32;;;;;;;0.40;0.40;;;;;;;20.27;62.78;99716.75;5046213;28;20053;-76
2023/05/25 05:24:00;;;;;;;0.30;0.30;;;;;;;20.25;62.97;99721.84;5046922;28;20087;-75
2023/05/25 05:26:27;;;;;;;0.40;0.40;;;;;;;20.25;63.09;99709.94;5063467;28;20091;-76
2023/05/25 05:28:53;;;;;;;0.30;0.30;;;;;;;20.25;62.82;99710.72;5044949;28;20048;-78
2023/05/25 05:31:21;;;;;;;0.30;0.30;;;;;;;20.22;62.82;99711.41;5040999;28;20056;-69
2023/05/25 05:33:49;;;;;;;0.30;0.30;;;;;;;20.18;62.92;99713.25;5022469;28;20064;-70
2023/05/25 05:36:16;;;;;;;0.60;0.40;;;;;;;20.20;62.84;99719.28;5041024;28;20346;-77
2023/05/25 05:38:45;;;;;;;0.33;0.33;;;;;;;20.23;63.01;99717.78;4687388;28;10000217;-77
2023/05/25 05:41:14;;;;;;;0.65;0.40;;;;;;;20.24;62.94;99714.66;5024339;28;20420;-70
2023/05/25 05:43:47;;;;;;;0.30;0.30;;;;;;;20.23;62.88;99717.78;5041537;28;20111;-69
2023/05/25 05:46:14;;;;;;;0.30;0.30;;;;;;;20.24;63.06;99708.31;5039846;28;20491;-69
2023/05/25 05:48:41;;;;;;;0.30;0.30;;;;;;;20.26;63.25;99711.56;5038774;28;20583;-70
2023/05/25 05:51:10;;;;;;;0.30;0.30;;;;;;;20.30;62.97;99712.47;5039965;28;20052;-70
2023/05/25 05:53:37;;;;;;;0.30;0.30;;;;;;;20.37;62.72;99707.19;5029218;28;20056;-70
2023/05/25 05:56:04;;;;;;;0.30;0.30;;;;;;;20.52;62.71;99710.44;5040878;28;20309;-70
2023/05/25 05:58:31;;;;;;;0.32;0.32;;;;;;;20.55;62.23;99710.56;5037072;28;20083;-69
2023/05/25 06:00:58;;;;;;;0.40;0.40;;;;;;;20.51;62.17;99706.88;5039204;28;20052;-70
2023/05/25 06:03:28;;;;;;;0.35;0.35;;;;;;;20.50;62.43;99710.78;5042356;28;20542;-69
2023/05/25 06:05:54;;;;;;;0.30;0.30;;;;;;;20.50;62.44;99709.97;5044267;28;20041;-70
2023/05/25 06:08:22;;;;;;;0.30;0.30;;;;;;;20.50;62.29;99712.75;5041086;28;20060;-69
2023/05/25 06:10:49;;;;;;;0.30;0.30;;;;;;;20.47;62.58;99703.16;5059212;28;20048;-72
2023/05/25 06:13:16;;;;;;;0.30;0.30;;;;;;;20.44;62.50;99717.72;5041548;28;20052;-69
2023/05/25 06:15:42;;;;;;;0.30;0.30;;;;;;;20.39;62.73;99715.16;5041504;28;20119;-69
2023/05/25 06:18:12;;;;;;;0.30;0.30;;;;;;;20.30;63.23;99708.91;5021777;28;20049;-70
2023/05/25 06:20:46;;;;;;;0.30;0.30;;;;;;;20.21;63.49;99707.03;5050882;28;20049;-71
2023/05/25 06:23:13;;;;;;;0.30;0.30;;;;;;;20.16;63.89;99710.03;5037827;28;20060;-70
2023/05/25 06:25:41;;;;;;;0.30;0.30;;;;;;;20.09;64.00;99712.53;5025916;28;20824;-70
2023/05/25 06:28:07;;;;;;;0.30;0.30;;;;;;;20.05;64.11;99708.81;5039505;28;20067;-69
2023/05/25 06:30:33;;;;;;;0.30;0.30;;;;;;;20.07;64.33;99699.00;5043987;28;20419;-70
2023/05/25 06:33:02;;;;;;;0.30;0.30;;;;;;;20.06;64.00;99704.91;5041823;28;20040;-77
2023/05/25 06:35:28;;;;;;;0.30;0.30;;;;;;;20.08;63.84;99702.59;5053726;28;20057;-76
2023/05/25 06:37:56;;;;;;;0.30;0.30;;;;;;;20.07;64.37;99709.28;5033148;28;20044;-76
2023/05/25 06:40:22;;;;;;;0.30;0.30;;;;;;;20.06;64.50;99718.75;5017678;28;20156;-77
2023/05/25 06:42:49;;;;;;;0.30;0.30;;;;;;;20.00;64.86;99718.16;5038697;28;20140;-76
2023/05/25 06:45:34;;;;;;;0.40;0.40;;;;;;;19.89;65.31;99723.28;5039424;28;20050;-77
2023/05/25 06:48:00;;;;;;;0.30;0.30;;;;;;;19.54;66.15;99687.53;5037778;28;20045;-76
2023/05/25 06:50:27;;;;;;;0.30;0.30;;;;;;;19.70;66.42;99732.09;5037026;28;20052;-76
2023/05/25 06:52:53;;;;;;;0.30;0.30;;;;;;;19.61;66.86;99723.84;5042480;28;20064;-77
2023/05/25 06:55:19;;;;;;;0.30;0.30;;;;;;;19.59;67.31;99728.91;5045987;28;20056;-76
2023/05/25 06:57:47;;;;;;;0.30;0.30;;;;;;;19.66;67.31;99731.94;5025458;28;20404;-77
2023/05/25 07:00:16;;;;;;;0.30;0.30;;;;;;;19.75;67.25;99729.13;5020838;28;20136;-71
2023/05/25 07:02:42;;;;;;;0.40;0.40;;;;;;;19.84;66.93;99731.84;5041350;28;20140;-77
2023/05/25 07:05:08;;;;;;;0.30;0.30;;;;;;;19.98;66.72;99726.84;5043998;28;20427;-77
2023/05/25 07:07:35;;;;;;;0.38;0.38;;;;;;;20.12;66.38;99731.25;5041673;28;20048;-77
2023/05/25 07:10:03;;;;;;;0.38;0.38;;;;;;;20.25;65.34;99726.59;5041447;28;20243;-77
2023/05/25 07:12:30;;;;;;;0.40;0.40;;;;;;;20.33;65.78;99728.44;5041761;28;20059;-75
2023/05/25 07:14:56;;;;;;;0.38;0.30;;;;;;;20.31;65.84;99729.97;5045968;28;20055;-77
2023/05/25 07:17:25;;;;;;;0.30;0.30;;;;;;;20.19;66.54;99716.84;5043392;28;20041;-76
2023/05/25 07:19:51;;;;;;;0.30;0.30;;;;;;;20.14;67.42;99723.44;5025711;28;20385;-76
2023/05/25 07:22:18;;;;;;;0.30;0.30;;;;;;;20.09;68.38;99730.00;5046095;28;20083;-71
2023/05/25 07:24:44;;;;;;;0.40;0.40;;;;;;;19.97;69.56;99733.53;5043041;28;20069;-71
2023/05/25 07:27:11;;;;;;;0.30;0.30;;;;;;;19.90;70.70;99721.31;5027882;28;20063;-70
2023/05/25 07:29:38;;;;;;;0.32;0.32;;;;;;;19.82;71.49;99725.78;5009026;28;20280;-71
2023/05/25 07:32:05;;;;;;;0.30;0.30;;;;;;;19.74;71.42;99727.47;5041051;28;20515;-70
2023/05/25 07:34:33;;;;;;;;;;;;;;;19.75;71.40;99720.00;5045689;28;20055;-71
2023/05/25 07:36:59;;;;;;;0.30;0.30;;;;;;;19.77;71.32;99721.28;5027874;28;19925;-71
2023/05/25 07:39:26;;;;;;;0.30;0.30;;;;;;;19.80;71.83;99725.31;5041885;28;20067;-71
2023/05/25 07:41:52;;;;;;;0.30;0.30;;;;;;;19.88;71.81;99718.91;5044282;28;20095;-71
2023/05/25 07:44:19;;;;;;;0.30;0.30;;;;;;;20.00;71.36;99722.91;5046893;28;20171;-71
2023/05/25 07:46:45;;;;;;;0.40;0.40;;;;;;;20.07;71.54;99720.38;5060636;28;20123;-71
2023/05/25 07:49:15;;;;;;;0.40;0.40;;;;;;;20.13;72.03;99713.47;5046088;28;20048;-71
2023/05/25 07:51:43;;;;;;;0.40;0.40;;;;;;;20.18;71.88;99707.72;5028348;28;20045;-71
2023/05/25 07:54:10;;;;;;;0.40;0.40;;;;;;;20.25;72.29;99712.72;5043018;28;20099;-71
2023/05/25 07:56:36;;;;;;;0.40;0.40;;;;;;;20.33;72.16;99706.22;5044376;28;20087;-71
2023/05/25 07:59:02;;;;;;;0.40;0.40;;;;;;;20.39;71.87;99710.44;5059210;28;20049;-76
2023/05/25 08:01:29;;;;;;;0.40;0.40;;;;;;;20.40;71.54;99712.06;5044266;28;20098;-77
2023/05/25 08:03:56;;;;;;;0.40;0.40;;;;;;;20.43;72.21;99709.75;5040995;28;20455;-76
2023/05/25 08:06:22;;;;;;;0.30;0.30;;;;;;;20.49;72.19;99720.28;5018860;28;20041;-76
2023/05/25 08:08:50;;;;;;;0.40;0.40;;;;;;;20.50;71.67;99712.75;5041709;28;20055;-77
2023/05/25 08:11:21;;;;;;;0.40;0.40;;;;;;;20.48;71.85;99715.06;5041691;28;20509;-76
2023/05/25 08:13:47;;;;;;;0.40;0.40;;;;;;;20.50;72.09;99719.13;5042234;28;20052;-76
2023/05/25 08:16:14;;;;;;;0.40;0.40;;;;;;;20.51;72.31;99719.91;5028591;28;20060;-76
2023/05/25 08:18:42;;;;;;;0.33;0.33;;;;;;;20.49;72.65;99719.47;5047987;28;20071;-76
2023/05/25 08:21:09;;;;;;;0.30;0.30;;;;;;;20.47;72.02;99717.03;5043139;28;20079;-77
2023/05/25 08:23:41;;;;;;;0.30;0.30;;;;;;;20.44;72.23;99711.34;5024288;28;20041;-76
2023/05/25 08:26:10;;;;;;;0.38;0.38;;;;;;;20.37;72.80;99709.97;5025461;28;20515;-76
2023/05/25 08:28:36;;;;;;;0.30;0.30;;;;;;;20.28;73.07;99712.00;5042267;28;20057;-76
2023/05/25 08:31:03;;;;;;;0.30;0.30;;;;;;;20.10;74.03;99711.38;5045496;28;20041;-76
2023/05/25 08:33:29;;;;;;;0.30;0.30;;;;;;;19.96;75.08;99712.47;5028957;28;20099;-76
2023/05/25 08:35:57;;;;;;;0.30;0.30;;;;;;;19.81;75.67;99716.66;5029569;28;20152;-77
2023/05/25 08:38:24;;;;;;;0.30;0.30;;;;;;;19.70;76.18;99721.81;5048540;28;20523;-72
2023/05/25 08:41:02;;;;;;;0.40;0.40;;;;;;;19.59;76.86;99719.78;5027329;28;20049;-72
2023/05/25 08:43:29;;;;;;;0.43;0.30;;;;;;;19.50;77.19;99719.84;5046164;28;20060;-71
2023/05/25 08:46:00;;;;;;;0.30;0.30;;;;;;;19.44;77.56;99722.03;5046367;28;20045;-71
2023/05/25 08:48:29;;;;;;;0.30;0.30;;;;;;;19.34;78.04;99720.44;5047931;28;20057;-76
2023/05/25 08:50:57;;;;;;;0.30;0.30;;;;;;;19.21;79.15;99718.75;5030253;28;20512;-71
2023/05/25 08:53:25;;;;;;;0.40;0.40;;;;;;;19.03;79.60;99716.06;5045322;28;20055;-72
2023/05/25 08:55:53;;;;;;;0.25;0.25;;;;;;;18.97;80.31;99712.66;5043629;28;20040;-72
2023/05/25 08:58:27;;;;;;;0.30;0.30;;;;;;;19.07;80.39;99716.19;5039934;28;20045;-72
2023/05/25 09:00:57;;;;;;;0.30;0.30;;;;;;;19.14;80.50;99716.50;5042960;28;20072;-72
2023/05/25 09:03:24;;;;;;;0.30;0.30;;;;;;;19.24;80.65;99712.53;5026553;28;20135;-76
2023/05/25 09:05:50;;;;;;;0.40;0.40;;;;;;;19.35;80.44;99715.72;5029139;28;20130;-72
2023/05/25 09:08:19;;;;;;;0.40;0.40;;;;;;;19.44;80.49;99710.09;5029847;28;20069;-71
2023/05/25 09:10:47;;;;;;;0.30;0.30;;;;;;;19.50;80.44;99715.13;5012733;28;20298;-71
2023/05/25 09:13:14;;;;;;;0.30;0.30;;;;;;;19.53;80.46;99713.63;5049255;28;20049;-71
2023/05/25 09:15:40;;;;;;;0.30;0.30;;;;;;;19.59;80.16;99717.81;5046011;28;20555;-71
2023/05/25 09:18:08;;;;;;;0.40;0.40;;;;;;;19.63;79.83;99716.00;5045813;28;20144;-71
2023/05/25 09:20:34;;;;;;;0.30;0.30;;;;;;;19.69;79.02;99717.44;5044553;28;20052;-71
2023/05/25 09:23:02;;;;;;;0.30;0.30;;;;;;;19.76;79.20;99713.28;5031153;28;20127;-76
2023/05/25 09:25:30;;;;;;;0.40;0.40;;;;;;;19.87;78.53;99720.06;5048026;28;20045;-77
2023/05/25 09:28:00;;;;;;;0.40;0.40;;;;;;;19.98;78.14;99712.16;5046922;28;20508;-77
2023/05/25 09:30:31;;;;;;;0.30;0.30;;;;;;;20.12;76.80;99709.06;5046389;28;20562;-76
2023/05/25 09:33:11;;;;;;;0.40;0.40;;;;;;;20.17;76.75;99711.66;5047664;28;20047;-76
2023/05/25 09:35:37;;;;;;;0.40;0.40;;;;;;;20.19;76.33;99709.34;5011434;28;20055;-77
2023/05/25 09:38:04;;;;;;;0.40;0.40;;;;;;;20.19;76.10;99711.28;5045271;28;20049;-76
2023/05/25 09:40:33;;;;;;;0.30;0.30;;;;;;;20.26;76.34;99711.56;5027460;28;20049;-76
2023/05/25 09:43:00;;;;;;;0.30;0.30;;;;;;;20.28;75.92;99712.00;5044717;28;20076;-76
2023/05/25 09:45:26;;;;;;;0.30;0.30;;;;;;;20.25;75.82;99709.94;5029624;28;20139;-72
2023/05/25 09:47:54;;;;;;;0.30;0.30;;;;;;;20.18;76.10;99716.03;5044072;28;20136;-71
2023/05/25 09:50:22;;;;;;;0.30;0.30;;;;;;;20.11;76.30;99710.22;5045603;28;20073;-71
2023/05/25 09:52:51;;;;;;;0.40;0.40;;;;;;;20.10;76.71;99711.38;5043758;28;20049;-70
2023/05/25 09:55:17;;;;;;;0.40;0.40;;;;;;;20.19;76.88;99706.56;5026029;28;20076;-70
2023/05/25 09:57:43;;;;;;;0.30;0.30;;;;;;;20.33;76.61;99702.66;5045431;28;20187;-70
2023/05/25 10:00:11;;;;;;;0.30;0.30;;;;;;;20.39;75.91;99701.28;5043791;28;20504;-71
2023/05/25 10:02:40;;;;;;;0.30;0.30;;;;;;;20.34;76.14;99707.06;5045477;28;20043;-70
2023/05/25 10:05:07;;;;;;;0.30;0.30;;;;;;;20.23;76.60;99701.94;5040131;28;20052;-71
2023/05/25 10:07:37;;;;;;;0.30;0.30;;;;;;;20.08;77.08;99699.81;5037607;28;20056;-71
2023/05/25 10:10:06;;;;;;;0.30;0.30;;;;;;;20.01;77.92;99700.38;5044059;28;20045;-71
2023/05/25 10:12:33;;;;;;;0.30;0.30;;;;;;;19.97;78.69;99694.66;5042536;28;20053;-70
2023/05/25 10:15:02;;;;;;;0.30;0.30;;;;;;;20.00;79.44;99695.16;5045375;28;20049;-71
2023/05/25 10:17:34;;;;;;;0.30;0.30;;;;;;;20.05;79.79;99698.50;5039926;28;20538;-72
2023/05/25 10:20:04;;;;;;;0.30;0.30;;;;;;;20.16;79.86;99685.03;5042557;28;20521;-72
2023/05/25 10:22:35;;;;;;;0.30;0.30;;;;;;;20.10;79.88;99690.00;5039737;28;20049;-72
2023/05/25 10:25:09;;;;;;;0.30;0.30;;;;;;;20.02;80.61;99690.88;5039219;28;20041;-71
2023/05/25 10:27:40;;;;;;;0.40;0.40;;;;;;;20.12;80.89;99692.41;5042390;28;20049;-71
2023/05/25 10:30:07;;;;;;;0.40;0.40;;;;;;;20.32;80.54;99695.50;5040965;28;20087;-72
2023/05/25 10:32:36;;;;;;;0.40;0.40;;;;;;;20.54;79.26;99692.28;5042295;28;20068;-73
2023/05/25 10:35:03;;;;;;;0.40;0.40;;;;;;;20.86;77.48;99685.38;5041215;28;20155;-71
2023/05/25 10:37:32;;;;;;;0.50;0.50;;;;;;;21.23;76.40;99686.16;5058859;28;20049;-71
2023/05/25 10:40:00;;;;;;;0.50;0.50;;;;;;;21.72;74.58;99686.44;5046343;28;20274;-71
2023/05/25 10:42:28;;;;;;;0.70;0.70;;;;;;;22.44;71.53;99684.78;5043854;28;20072;-71
2023/05/25 10:44:55;;;;;;;0.50;0.50;;;;;;;23.25;67.16;99679.97;5029850;28;20123;-72
2023/05/25 10:47:23;;;;;;;0.40;0.40;;;;;;;23.40;65.15;99693.09;5051022;28;20063;-71
2023/05/25 10:49:52;;;;;;;;;;;;;;;23.31;64.78;99690.50;5040980;28;20103;-71
2023/05/25 10:52:19;;;;;;;0.30;0.30;;;;;;;23.09;64.64;99680.81;5036247;28;19925;-72
2023/05/25 10:54:46;;;;;;;0.30;0.30;;;;;;;22.73;65.38;99677.19;5020474;28;20041;-72
2023/05/25 10:57:18;;;;;;;0.30;0.30;;;;;;;22.29;66.57;99686.38;5034146;28;20136;-72
2023/05/25 10:59:50;;;;;;;0.30;0.30;;;;;;;21.99;67.44;99682.03;5034354;28;20071;-71
2023/05/25 11:02:21;;;;;;;0.30;0.30;;;;;;;21.73;67.97;99674.16;5034166;28;20041;-71
2023/05/25 11:04:48;;;;;;;0.30;0.30;;;;;;;21.53;69.15;99669.19;5019020;28;20056;-71
2023/05/25 11:07:17;;;;;;;0.30;0.30;;;;;;;21.46;69.36;99660.63;5019844;28;20087;-71
2023/05/25 11:09:56;;;;;;;0.30;0.30;;;;;;;21.34;70.08;99658.69;5034306;28;20136;-71
2023/05/25 11:12:23;;;;;;;0.30;0.30;;;;;;;21.24;70.87;99648.06;5042249;28;20062;-71
2023/05/25 11:15:17;;;;;;;0.38;0.38;;;;;;;21.19;71.58;99649.13;5032536;28;20531;-71
2023/05/25 11:18:01;;;;;;;0.40;0.40;;;;;;;21.27;71.78;99652.94;5009276;28;20428;-71
2023/05/25 11:20:29;;;;;;;0.40;0.40;;;;;;;21.39;71.27;99646.50;5032609;28;20053;-70
2023/05/25 11:22:57;;;;;;;0.40;0.40;;;;;;;21.50;70.23;99641.25;5034614;28;20048;-71
2023/05/25 11:25:38;;;;;;;0.50;0.50;;;;;;;21.68;68.58;99650.97;5035002;28;20075;-72
2023/05/25 11:28:05;;;;;;;0.40;0.40;;;;;;;21.87;67.36;99648.69;5031970;28;20053;-71
2023/05/25 11:30:33;;;;;;;0.40;0.40;;;;;;;22.00;66.50;99638.28;5037872;28;20045;-71
2023/05/25 11:33:02;;;;;;;0.50;0.50;;;;;;;22.22;65.82;99636.88;5035411;28;20412;-71
2023/05/25 11:35:32;;;;;;;0.50;0.50;;;;;;;22.57;65.00;99624.25;5015439;28;20389;-71
2023/05/25 11:37:59;;;;;;;0.50;0.50;;;;;;;22.75;64.12;99628.28;5035039;28;20068;-72
2023/05/25 11:40:28;;;;;;;0.50;0.50;;;;;;;22.86;63.79;99627.72;5034057;28;20048;-71